Time;durP1;ratioP1;P1;durP2;ratioP2;P2;SDS_P1;SDS_P2;PMS_P1;PMS_P2;Temp;Humidity;BMP_temperature;BMP_pressure;BME280_temperature;BME280_humidity;BME280_pressure;Samples;Min_cycle;Max_cycle;Signal;HPM_P1;HPM_P2
2022/04/23 00:01:26;;;;;;;7.65;4.60;;;;;;;11.90;66.94;100690.41;5006709;28;20025;-57
2022/04/23 00:03:51;;;;;;;6.97;4.72;;;;;;;11.81;66.72;100682.88;5006381;28;20036;-58
2022/04/23 00:06:16;;;;;;;7.25;4.82;;;;;;;11.85;66.74;100681.81;5007623;28;20026;-56
2022/04/23 00:08:42;;;;;;;6.32;5.00;;;;;;;11.88;66.81;100681.69;5005191;28;20046;-56
2022/04/23 00:11:07;;;;;;;6.45;4.50;;;;;;;11.92;66.73;100679.78;5006058;28;20117;-56
2022/04/23 00:13:32;;;;;;;6.15;5.07;;;;;;;11.86;66.90;100680.91;5004632;28;20033;-54
2022/04/23 00:15:58;;;;;;;6.07;4.47;;;;;;;11.87;66.74;100683.44;5006287;28;20062;-54
2022/04/23 00:18:23;;;;;;;8.85;4.68;;;;;;;11.75;67.31;100684.00;5005724;28;20042;-57
2022/04/23 00:20:48;;;;;;;6.80;4.63;;;;;;;11.79;67.42;100682.94;5007490;28;20029;-56
2022/04/23 00:23:14;;;;;;;7.00;4.80;;;;;;;11.76;67.42;100669.84;5004939;28;20025;-56
2022/04/23 00:25:41;;;;;;;9.80;5.07;;;;;;;11.66;67.94;100673.81;5005615;28;20041;-59
2022/04/23 00:28:07;;;;;;;8.00;5.40;;;;;;;11.76;67.24;100675.13;5005545;28;20061;-56
2022/04/23 00:30:33;;;;;;;7.55;5.60;;;;;;;11.77;67.28;100673.38;5002719;28;20065;-57
2022/04/23 00:33:02;;;;;;;6.43;5.03;;;;;;;11.83;67.44;100676.59;5005514;28;20033;-55
2022/04/23 00:35:27;;;;;;;;;;;;;;;11.89;67.33;100672.84;5005537;28;20402;-56
2022/04/23 00:37:53;;;;;;;6.97;5.57;;;;;;;11.91;66.91;100678.03;5005320;28;20416;-57
2022/04/23 00:40:19;;;;;;;6.85;5.43;;;;;;;11.78;67.70;100668.03;5006453;28;20456;-58
2022/04/23 00:42:50;;;;;;;9.23;5.60;;;;;;;11.73;67.77;100669.97;5004141;28;20040;-56
2022/04/23 00:45:16;;;;;;;6.82;5.60;;;;;;;11.72;68.09;100669.16;5005507;28;20030;-56
2022/04/23 00:47:41;;;;;;;6.47;5.03;;;;;;;11.73;67.53;100664.69;5005716;28;20465;-55
2022/04/23 00:50:06;;;;;;;9.32;6.03;;;;;;;11.60;68.42;100662.59;5005817;28;20046;-57
2022/04/23 00:52:32;;;;;;;8.80;6.05;;;;;;;11.62;68.50;100660.72;5004711;28;20556;-58
2022/04/23 00:54:59;;;;;;;9.88;5.28;;;;;;;11.51;69.07;100668.25;5006825;28;20061;-56
2022/04/23 00:57:24;;;;;;;11.00;5.85;;;;;;;11.46;68.97;100663.16;5004826;28;20068;-56
2022/04/23 00:59:49;;;;;;;9.55;5.80;;;;;;;11.53;68.62;100663.75;5007476;28;20050;-56
2022/04/23 01:02:15;;;;;;;11.65;6.32;;;;;;;11.62;68.80;100668.66;5008096;28;20033;-59
2022/04/23 01:04:40;;;;;;;10.13;6.30;;;;;;;11.53;68.77;100658.47;5009227;28;20045;-55
2022/04/23 01:07:06;;;;;;;8.95;6.28;;;;;;;11.53;68.91;100660.25;5007199;28;20045;-57
2022/04/23 01:09:31;;;;;;;10.85;7.10;;;;;;;11.43;69.39;100658.00;5006715;28;20072;-57
2022/04/23 01:11:58;;;;;;;9.52;6.75;;;;;;;11.36;69.72;100657.41;5006485;28;20038;-56
2022/04/23 01:14:23;;;;;;;10.73;6.82;;;;;;;11.32;70.17;100650.50;5008871;28;20048;-57
2022/04/23 01:16:49;;;;;;;9.43;6.43;;;;;;;11.42;69.67;100656.28;5009499;28;20477;-58
2022/04/23 01:19:14;;;;;;;10.40;7.15;;;;;;;11.35;70.20;100654.81;5008366;28;20492;-56
2022/04/23 01:21:39;;;;;;;10.18;6.68;;;;;;;11.38;69.71;100649.41;5007818;28;20270;-59
2022/04/23 01:24:06;;;;;;;10.25;8.10;;;;;;;11.31;70.42;100654.06;5009299;28;20040;-58
2022/04/23 01:26:32;;;;;;;11.50;7.43;;;;;;;11.21;70.53;100658.00;5007813;28;20060;-57
2022/04/23 01:28:58;;;;;;;11.98;7.70;;;;;;;11.27;70.75;100657.75;5010164;28;20022;-57
2022/04/23 01:31:24;;;;;;;10.57;7.32;;;;;;;11.19;70.89;100657.19;5007994;28;20026;-56
2022/04/23 01:33:49;;;;;;;11.25;7.05;;;;;;;11.29;70.61;100657.69;5010371;28;20042;-58
2022/04/23 01:36:15;;;;;;;10.32;7.53;;;;;;;11.10;71.29;100669.81;5009202;28;20477;-55
2022/04/23 01:38:42;;;;;;;11.43;7.82;;;;;;;11.05;71.63;100663.84;5007122;28;20048;-59
2022/04/23 01:41:07;;;;;;;11.88;8.05;;;;;;;11.06;71.34;100655.03;5010353;28;20029;-57
2022/04/23 01:43:32;;;;;;;12.20;8.52;;;;;;;11.09;71.56;100669.88;5008513;28;20492;-57
2022/04/23 01:45:58;;;;;;;12.68;7.97;;;;;;;11.16;71.34;100673.13;5008639;28;20057;-58
2022/04/23 01:48:23;;;;;;;13.82;8.38;;;;;;;11.16;71.30;100668.72;5009401;28;20037;-58
2022/04/23 01:50:50;;;;;;;11.80;7.75;;;;;;;11.11;71.60;100668.91;5008782;28;20021;-58
2022/04/23 01:53:15;;;;;;;10.68;8.18;;;;;;;11.08;71.96;100669.00;5006185;28;20022;-57
2022/04/23 01:55:41;;;;;;;12.82;8.40;;;;;;;11.05;71.86;100668.28;5008236;28;20380;-55
2022/04/23 01:58:06;;;;;;;14.50;9.88;;;;;;;10.98;72.40;100665.00;5007519;28;20030;-56
2022/04/23 02:00:31;;;;;;;13.32;8.65;;;;;;;11.01;71.96;100667.53;5007929;28;20058;-58
2022/04/23 02:02:57;;;;;;;14.35;9.52;;;;;;;11.00;72.36;100665.81;5009248;28;20103;-56
2022/04/23 02:05:22;;;;;;;16.98;10.10;;;;;;;10.87;72.88;100666.28;5007920;28;20063;-55
2022/04/23 02:07:47;;;;;;;17.75;9.65;;;;;;;10.94;72.41;100663.41;5007323;28;20119;-57
2022/04/23 02:10:15;;;;;;;16.15;9.90;;;;;;;11.00;72.41;100663.19;5008931;28;20022;-56
2022/04/23 02:12:40;;;;;;;11.05;9.85;;;;;;;10.92;72.76;100662.59;5007978;28;21082;-58
2022/04/23 02:15:09;;;;;;;14.40;9.93;;;;;;;10.85;72.93;100662.88;5005995;28;20022;-57
2022/04/23 02:17:35;;;;;;;13.05;10.50;;;;;;;10.74;73.29;100665.91;5008954;28;20033;-59
2022/04/23 02:20:04;;;;;;;13.90;10.65;;;;;;;10.74;73.29;100670.28;5007246;28;20345;-57
2022/04/23 02:22:30;;;;;;;13.35;9.95;;;;;;;10.68;73.55;100667.88;5007550;28;20030;-57
2022/04/23 02:24:56;;;;;;;17.17;10.15;;;;;;;10.83;73.26;100669.09;5008698;28;20026;-57
2022/04/23 02:27:23;;;;;;;15.07;10.73;;;;;;;10.82;73.29;100670.88;5007642;28;20025;-59
2022/04/23 02:29:48;;;;;;;14.90;10.55;;;;;;;10.59;74.31;100669.97;5008519;28;20030;-55
2022/04/23 02:32:13;;;;;;;14.15;10.40;;;;;;;10.71;73.76;100671.28;5007116;28;20481;-58
2022/04/23 02:34:39;;;;;;;13.95;9.88;;;;;;;10.69;73.49;100665.19;5005869;28;20112;-56
2022/04/23 02:37:07;;;;;;;17.25;10.40;;;;;;;10.68;73.67;100663.47;5005804;28;20026;-58
2022/04/23 02:39:33;;;;;;;14.63;10.35;;;;;;;10.72;73.82;100667.72;5006575;28;20341;-55
2022/04/23 02:41:58;;;;;;;16.30;10.70;;;;;;;10.67;73.76;100664.41;5008031;28;20473;-56
2022/04/23 02:44:23;;;;;;;14.13;10.43;;;;;;;10.72;73.74;100665.09;5007526;28;20030;-54
2022/04/23 02:46:49;;;;;;;12.98;9.98;;;;;;;10.69;74.08;100670.47;5007601;28;20053;-58
2022/04/23 02:49:14;;;;;;;19.58;11.20;;;;;;;10.66;73.97;100672.38;5008063;28;20029;-56
2022/04/23 02:51:42;;;;;;;17.67;11.40;;;;;;;10.64;74.25;100679.47;5007295;28;20042;-57
2022/04/23 02:54:07;;;;;;;16.92;11.50;;;;;;;10.63;74.23;100677.75;5007650;28;20072;-57
2022/04/23 02:56:33;;;;;;;17.27;11.20;;;;;;;10.58;74.38;100677.91;5007930;28;20053;-56
2022/04/23 02:58:59;;;;;;;17.20;12.23;;;;;;;10.58;74.39;100668.25;5007424;28;20029;-57
2022/04/23 03:01:24;;;;;;;16.05;11.98;;;;;;;10.60;74.31;100674.31;5008410;28;20455;-58
2022/04/23 03:03:54;;;;;;;16.00;12.30;;;;;;;10.68;74.27;100670.53;5007937;28;20029;-57
2022/04/23 03:06:20;;;;;;;17.23;11.85;;;;;;;10.76;73.93;100668.47;5006334;28;20488;-57
2022/04/23 03:08:46;;;;;;;18.77;12.77;;;;;;;10.73;74.20;100666.81;5008008;28;20472;-54
2022/04/23 03:11:11;;;;;;;20.50;14.07;;;;;;;10.70;74.35;100663.44;5007211;28;20045;-57
2022/04/23 03:13:36;;;;;;;18.25;13.23;;;;;;;10.78;74.17;100671.94;5006616;28;20041;-56
2022/04/23 03:16:02;;;;;;;18.55;14.48;;;;;;;10.84;74.13;100671.66;5006828;28;20033;-58
2022/04/23 03:18:28;;;;;;;20.10;14.75;;;;;;;10.80;74.09;100675.34;5007018;28;20385;-56
2022/04/23 03:20:53;;;;;;;20.02;14.85;;;;;;;10.87;73.92;100666.28;5007161;28;20053;-56
2022/04/23 03:23:19;;;;;;;20.52;14.07;;;;;;;10.80;74.35;100672.72;5007245;28;20021;-56
2022/04/23 03:25:45;;;;;;;20.15;14.60;;;;;;;10.72;74.10;100661.59;5006650;28;20041;-58
2022/04/23 03:28:13;;;;;;;18.50;13.38;;;;;;;10.77;74.17;100664.91;5007544;28;20038;-57
2022/04/23 03:30:39;;;;;;;18.67;13.33;;;;;;;10.91;73.79;100666.16;5007732;28;20469;-57
2022/04/23 03:33:04;;;;;;;17.92;13.55;;;;;;;10.85;73.98;100665.50;5007191;28;20037;-55
2022/04/23 03:35:30;;;;;;;20.25;14.48;;;;;;;10.86;73.93;100668.97;5006300;28;20113;-56
2022/04/23 03:37:58;;;;;;;21.70;14.77;;;;;;;10.88;74.36;100669.78;5007159;28;20108;-57
2022/04/23 03:40:24;;;;;;;17.40;14.53;;;;;;;10.92;74.02;100666.09;5005485;28;20060;-58
2022/04/23 03:42:49;;;;;;;21.55;13.88;;;;;;;10.92;74.08;100662.59;5008073;28;20045;-57
2022/04/23 03:45:18;;;;;;;19.05;13.80;;;;;;;10.93;74.25;100664.34;5004988;28;20379;-58
2022/04/23 03:47:45;;;;;;;23.10;15.52;;;;;;;10.99;74.02;100661.47;5003970;28;20036;-57
2022/04/23 03:50:11;;;;;;;18.85;13.95;;;;;;;10.90;74.17;100665.31;5007484;28;20045;-57
2022/04/23 03:52:36;;;;;;;18.33;14.30;;;;;;;10.91;74.13;100664.41;5006348;28;20484;-56
2022/04/23 03:55:04;;;;;;;20.83;14.07;;;;;;;10.89;74.55;100658.31;5006929;28;20122;-57
2022/04/23 03:57:29;;;;;;;20.20;15.55;;;;;;;10.79;74.62;100662.22;5001034;28;20473;-57
2022/04/23 03:59:55;;;;;;;22.67;15.57;;;;;;;10.80;74.80;100658.66;5000994;28;20051;-57
2022/04/23 04:02:20;;;;;;;22.67;16.05;;;;;;;10.72;75.06;100656.34;5006855;28;20396;-59
2022/04/23 04:04:46;;;;;;;20.58;15.68;;;;;;;10.68;75.43;100647.69;5007434;28;20109;-57
2022/04/23 04:07:18;;;;;;;20.42;16.20;;;;;;;10.68;75.60;100650.31;5006204;28;20030;-56
2022/04/23 04:09:44;;;;;;;25.42;16.15;;;;;;;10.55;76.15;100646.41;5006552;28;20022;-56
2022/04/23 04:12:10;;;;;;;21.55;16.27;;;;;;;10.48;76.44;100636.09;5007076;28;20022;-57
2022/04/23 04:14:36;;;;;;;22.10;16.55;;;;;;;10.54;76.31;100642.91;5006518;28;20079;-57
2022/04/23 04:17:05;;;;;;;27.35;17.92;;;;;;;10.44;77.05;100645.00;5006799;28;20021;-56
2022/04/23 04:19:32;;;;;;;22.15;17.02;;;;;;;10.56;76.61;100641.09;5005404;28;20107;-56
2022/04/23 04:21:58;;;;;;;22.20;16.38;;;;;;;10.59;76.16;100629.56;5004712;28;20018;-57
2022/04/23 04:24:24;;;;;;;25.67;17.52;;;;;;;10.48;76.54;100628.19;5006919;28;20079;-59
2022/04/23 04:26:52;;;;;;;23.60;16.52;;;;;;;10.60;76.12;100631.31;5007317;28;20030;-57
2022/04/23 04:29:17;;;;;;;26.67;18.55;;;;;;;10.51;76.67;100621.97;5006085;28;20018;-55
2022/04/23 04:31:49;;;;;;;22.83;16.70;;;;;;;10.59;76.55;100629.56;5006841;28;20044;-57
2022/04/23 04:34:18;;;;;;;24.23;17.55;;;;;;;10.63;76.23;100630.31;5009849;28;20037;-56
2022/04/23 04:36:44;;;;;;;26.58;18.25;;;;;;;10.60;76.01;100626.88;5010141;28;20415;-56
2022/04/23 04:39:10;;;;;;;28.60;19.88;;;;;;;10.49;76.83;100623.78;5010513;28;20208;-56
2022/04/23 04:41:35;;;;;;;27.45;18.52;;;;;;;10.40;77.01;100634.63;5010283;28;20022;-56
2022/04/23 04:44:05;;;;;;;25.80;19.42;;;;;;;10.47;76.79;100617.72;5010329;28;20033;-57
2022/04/23 04:46:31;;;;;;;30.98;19.45;;;;;;;10.50;76.42;100622.88;5010285;28;20469;-56
2022/04/23 04:48:56;;;;;;;22.60;18.17;;;;;;;10.46;76.94;100622.13;5010257;28;20053;-57
2022/04/23 04:51:22;;;;;;;33.03;21.50;;;;;;;10.25;77.55;100636.91;5009809;28;20061;-56
2022/04/23 04:53:47;;;;;;;29.15;20.70;;;;;;;10.35;77.22;100633.03;5011121;28;20045;-58
2022/04/23 04:56:12;;;;;;;27.58;19.48;;;;;;;10.40;76.95;100635.50;5010091;28;20045;-56
2022/04/23 04:58:38;;;;;;;29.20;20.60;;;;;;;10.43;76.95;100629.25;5009725;28;20028;-55
2022/04/23 05:01:03;;;;;;;31.35;19.88;;;;;;;10.50;76.57;100633.41;5010218;28;20034;-57
2022/04/23 05:03:29;;;;;;;28.17;20.27;;;;;;;10.61;76.18;100639.16;5008880;28;20022;-57
2022/04/23 05:05:54;;;;;;;27.60;20.33;;;;;;;10.59;76.35;100635.72;5009667;28;20037;-56
2022/04/23 05:08:20;;;;;;;32.08;19.90;;;;;;;10.65;76.04;100644.31;5007868;28;20041;-56
2022/04/23 05:10:47;;;;;;;32.38;19.75;;;;;;;10.63;76.42;100646.13;5010753;28;20065;-57
2022/04/23 05:13:12;;;;;;;29.90;20.60;;;;;;;10.61;76.71;100643.56;5009506;28;20358;-57
2022/04/23 05:15:39;;;;;;;28.05;20.92;;;;;;;10.50;76.87;100646.56;5009127;28;20080;-58
2022/04/23 05:18:04;;;;;;;26.95;20.30;;;;;;;10.67;76.47;100645.09;5009044;28;20026;-56
2022/04/23 05:20:29;;;;;;;29.95;20.95;;;;;;;10.69;76.31;100646.75;5007151;28;20499;-56
2022/04/23 05:22:55;;;;;;;28.55;20.13;;;;;;;10.86;75.96;100654.03;5008417;28;20080;-58
2022/04/23 05:25:20;;;;;;;26.70;19.83;;;;;;;10.74;76.09;100649.22;5009327;28;20554;-58
2022/04/23 05:27:45;;;;;;;29.73;20.98;;;;;;;10.71;76.28;100647.56;5009677;28;20022;-54
2022/04/23 05:30:11;;;;;;;28.55;19.63;;;;;;;10.72;76.32;100651.06;5010131;28;20018;-59
2022/04/23 05:32:36;;;;;;;32.30;20.98;;;;;;;10.91;75.74;100650.34;5008653;28;20058;-58
2022/04/23 05:35:02;;;;;;;27.20;20.70;;;;;;;10.87;75.72;100647.84;5009112;28;20026;-57
2022/04/23 05:37:27;;;;;;;31.35;21.23;;;;;;;10.87;76.00;100647.84;5007621;28;20010;-58
2022/04/23 05:39:52;;;;;;;30.92;21.70;;;;;;;10.78;76.11;100645.56;5009309;28;20465;-57
2022/04/23 05:42:18;;;;;;;32.60;22.05;;;;;;;10.99;75.46;100646.50;5009694;28;20076;-59
2022/04/23 05:44:43;;;;;;;24.90;20.05;;;;;;;11.02;75.37;100650.81;5008263;28;20109;-56
2022/04/23 05:47:08;;;;;;;27.13;20.55;;;;;;;11.00;75.44;100642.09;5009330;28;20022;-58
2022/04/23 05:49:33;;;;;;;29.52;21.02;;;;;;;10.96;75.96;100648.41;5007229;28;20102;-59
2022/04/23 05:51:59;;;;;;;27.33;20.52;;;;;;;11.11;75.32;100646.97;4993663;28;20038;-58
2022/04/23 05:54:24;;;;;;;26.73;20.42;;;;;;;11.21;75.12;100647.44;4989348;28;20054;-57
2022/04/23 05:56:49;;;;;;;28.45;20.67;;;;;;;11.30;74.80;100647.09;4988463;28;20049;-57
2022/04/23 05:59:15;;;;;;;27.75;21.38;;;;;;;11.26;74.98;100656.03;4996460;28;20030;-57
2022/04/23 06:01:40;;;;;;;28.20;19.27;;;;;;;11.28;74.90;100664.75;5009643;28;20021;-55
2022/04/23 06:04:05;;;;;;;27.08;20.15;;;;;;;11.34;74.39;100656.59;5008087;28;20084;-57
2022/04/23 06:06:31;;;;;;;32.70;21.02;;;;;;;11.41;74.37;100662.47;5001643;28;20103;-60
2022/04/23 06:08:57;;;;;;;26.23;20.10;;;;;;;11.45;73.97;100661.44;4998777;28;20485;-63
2022/04/23 06:11:22;;;;;;;25.65;19.80;;;;;;;11.45;74.11;100666.72;4997914;28;20018;-60
2022/04/23 06:13:47;;;;;;;25.00;19.20;;;;;;;11.63;73.81;100669.53;5000307;28;20022;-60
2022/04/23 06:16:13;;;;;;;31.67;20.45;;;;;;;11.36;74.73;100662.66;4997340;28;20026;-61
2022/04/23 06:18:38;;;;;;;23.65;19.15;;;;;;;11.57;73.81;100665.34;4983384;28;20056;-61
2022/04/23 06:21:03;;;;;;;27.17;18.42;;;;;;;11.67;73.60;100664.94;4997189;28;20358;-59
2022/04/23 06:23:28;;;;;;;24.90;20.08;;;;;;;11.74;72.93;100661.16;4997733;28;20029;-61
2022/04/23 06:25:54;;;;;;;26.88;20.02;;;;;;;11.85;73.09;100652.78;4998808;28;20097;-60
2022/04/23 06:28:19;;;;;;;23.80;18.23;;;;;;;12.02;72.06;100649.44;4996256;28;20456;-60
2022/04/23 06:30:44;;;;;;;24.23;18.33;;;;;;;12.01;72.54;100643.28;4999035;28;20026;-59
2022/04/23 06:33:10;;;;;;;25.98;19.42;;;;;;;12.08;71.99;100637.75;4996990;28;20025;-58
2022/04/23 06:35:35;;;;;;;24.02;18.40;;;;;;;12.04;71.88;100641.44;5001059;28;20033;-59
2022/04/23 06:38:01;;;;;;;23.65;17.83;;;;;;;12.12;71.38;100642.84;4998399;28;20029;-58
2022/04/23 06:40:26;;;;;;;21.80;18.27;;;;;;;12.12;71.58;100650.78;5003142;28;20400;-57
2022/04/23 06:42:52;;;;;;;23.67;19.05;;;;;;;12.27;71.00;100651.00;5007696;28;20105;-61
2022/04/23 06:45:17;;;;;;;22.45;18.30;;;;;;;12.19;71.25;100646.06;5005200;28;20040;-58
2022/04/23 06:47:42;;;;;;;25.27;17.92;;;;;;;12.37;70.77;100639.13;5005065;28;20049;-59
2022/04/23 06:50:08;;;;;;;22.98;18.05;;;;;;;12.49;70.51;100647.41;5007209;28;20037;-59
2022/04/23 06:52:33;;;;;;;22.75;17.92;;;;;;;12.38;70.55;100650.56;5007059;28;20105;-58
2022/04/23 06:54:59;;;;;;;23.52;17.80;;;;;;;12.43;70.29;100647.72;5007418;28;20076;-60
2022/04/23 06:57:25;;;;;;;24.00;17.40;;;;;;;12.54;69.92;100656.00;5007227;28;20487;-59
2022/04/23 06:59:51;;;;;;;21.48;16.80;;;;;;;12.61;69.67;100641.56;5007242;28;20053;-58
2022/04/23 07:02:18;;;;;;;22.83;17.45;;;;;;;12.47;69.95;100638.72;5008501;28;20025;-58
2022/04/23 07:04:43;;;;;;;23.95;18.13;;;;;;;12.55;70.23;100636.56;5006081;28;20029;-61
2022/04/23 07:07:10;;;;;;;26.58;17.27;;;;;;;12.40;70.53;100638.13;5007374;28;20069;-60
2022/04/23 07:09:35;;;;;;;20.33;16.05;;;;;;;12.68;69.78;100642.16;5002488;28;20503;-59
2022/04/23 07:12:00;;;;;;;19.08;16.20;;;;;;;12.74;69.15;100635.72;4987786;28;20113;-59
2022/04/23 07:14:26;;;;;;;21.60;15.98;;;;;;;12.77;68.85;100631.13;5000494;28;20103;-59
2022/04/23 07:16:51;;;;;;;19.60;15.98;;;;;;;12.79;68.96;100636.34;5006685;28;20036;-60
2022/04/23 07:19:17;;;;;;;20.65;16.33;;;;;;;12.98;68.78;100638.16;5007134;28;20089;-59
2022/04/23 07:21:42;;;;;;;22.60;15.20;;;;;;;13.09;67.85;100627.91;5005993;28;20034;-59
2022/04/23 07:24:10;;;;;;;19.90;15.80;;;;;;;13.09;67.89;100629.69;5007588;28;20034;-60
2022/04/23 07:26:36;;;;;;;21.23;14.57;;;;;;;13.30;67.33;100632.25;5006259;28;20424;-60
2022/04/23 07:29:03;;;;;;;20.00;14.52;;;;;;;13.28;67.09;100621.75;5006927;28;20018;-60
2022/04/23 07:31:29;;;;;;;19.13;16.08;;;;;;;13.27;67.48;100631.47;5004636;28;20018;-61
2022/04/23 07:39:23;;;;;;;19.10;15.27;;;;;;;13.66;66.65;100619.94;5005765;28;20028;-59
2022/04/23 07:41:49;;;;;;;17.65;13.85;;;;;;;13.87;65.67;100624.13;5005748;28;20118;-63
2022/04/23 07:44:14;;;;;;;21.35;14.25;;;;;;;13.99;65.49;100619.13;5006789;28;20041;-60
2022/04/23 07:46:39;;;;;;;22.15;16.08;;;;;;;13.81;65.63;100618.31;5006068;28;20052;-60
2022/04/23 07:49:05;;;;;;;17.85;14.95;;;;;;;13.89;65.34;100609.03;5007233;28;20032;-61
2022/04/23 07:51:30;;;;;;;19.23;14.45;;;;;;;14.01;64.34;100611.97;5005008;28;20026;-59
2022/04/23 07:53:56;;;;;;;18.70;14.43;;;;;;;14.06;64.14;100609.91;5006593;28;20049;-59
2022/04/23 07:56:22;;;;;;;20.48;15.00;;;;;;;14.26;63.01;100616.84;5005371;28;20084;-61
2022/04/23 07:58:47;;;;;;;19.23;13.95;;;;;;;14.17;63.41;100612.00;5007186;28;20108;-58
2022/04/23 08:01:12;;;;;;;20.88;15.38;;;;;;;14.09;64.26;100612.41;5005678;28;20121;-60
2022/04/23 08:03:38;;;;;;;18.13;15.40;;;;;;;14.09;63.51;100604.47;5006871;28;20384;-60
2022/04/23 08:06:03;;;;;;;16.63;14.13;;;;;;;14.37;63.19;100608.31;5005164;28;20073;-59
2022/04/23 08:08:28;;;;;;;21.33;15.25;;;;;;;14.37;62.11;100602.16;5006468;28;20076;-61
2022/04/23 08:10:54;;;;;;;18.33;14.30;;;;;;;14.57;62.53;100603.72;5005938;28;20481;-59
2022/04/23 08:13:20;;;;;;;20.45;14.85;;;;;;;14.69;61.56;100606.66;5006439;28;20140;-59
2022/04/23 08:15:45;;;;;;;16.30;14.10;;;;;;;14.64;61.41;100599.81;5006218;28;20139;-59
2022/04/23 08:18:11;;;;;;;17.45;14.30;;;;;;;14.62;61.55;100596.38;5006483;28;20465;-60
2022/04/23 08:20:38;;;;;;;22.60;15.38;;;;;;;14.59;61.77;100585.06;5006186;28;20040;-60
2022/04/23 08:23:04;;;;;;;20.40;15.35;;;;;;;14.81;61.08;100587.41;5005643;28;20049;-59
2022/04/23 08:25:29;;;;;;;17.60;14.75;;;;;;;14.81;61.46;100595.38;5006236;28;20087;-59
2022/04/23 08:30:34;;;;;;;19.30;14.77;;;;;;;14.81;60.59;100587.41;5005643;28;21072;-59
2022/04/23 08:30:43;;;;;;;18.77;14.13;;;;;;;14.99;60.72;100580.22;5006524;28;20392;-59
2022/04/23 08:33:08;;;;;;;18.85;14.77;;;;;;;15.19;60.64;100590.63;5005644;28;20030;-59
2022/04/23 08:35:36;;;;;;;16.83;13.57;;;;;;;15.29;59.67;100589.16;5005951;28;20022;-59
2022/04/23 08:38:04;;;;;;;18.27;14.55;;;;;;;15.15;60.11;100587.31;5005788;28;20497;-60
2022/04/23 08:40:34;;;;;;;16.48;14.05;;;;;;;15.26;59.94;100582.22;5006155;28;20026;-59
2022/04/23 08:43:00;;;;;;;18.80;14.70;;;;;;;15.46;59.73;100582.00;5004962;28;20026;-59
2022/04/23 08:45:26;;;;;;;16.73;13.63;;;;;;;15.76;59.32;100582.00;5004632;28;20030;-60
2022/04/23 08:47:51;;;;;;;17.92;13.65;;;;;;;15.87;58.67;100573.38;5006930;28;20134;-61
2022/04/23 08:50:20;;;;;;;15.27;13.35;;;;;;;16.08;57.48;100581.03;5004301;28;20030;-60
2022/04/23 08:52:53;;;;;;;18.30;13.20;;;;;;;16.08;57.66;100590.78;5006293;28;20134;-63
2022/04/23 08:55:19;;;;;;;14.82;12.50;;;;;;;16.33;57.47;100576.84;5006438;28;20057;-58
2022/04/23 08:57:44;;;;;;;17.10;13.70;;;;;;;16.48;57.05;100577.69;5006754;28;20069;-49
2022/04/23 09:00:12;;;;;;;16.05;12.70;;;;;;;16.67;55.40;100569.38;5005617;28;20022;-52
2022/04/23 09:02:37;;;;;;;16.05;12.73;;;;;;;16.48;56.29;100577.69;5005443;28;20034;-61
2022/04/23 09:05:03;;;;;;;18.25;12.82;;;;;;;16.39;56.25;100571.16;5005625;28;20077;-58
2022/04/23 09:07:29;;;;;;;14.90;13.13;;;;;;;16.41;56.29;100573.72;5003606;28;20052;-60
2022/04/23 09:09:57;;;;;;;14.95;12.88;;;;;;;16.52;56.19;100567.69;5006048;28;20013;-59
2022/04/23 09:12:24;;;;;;;15.02;12.80;;;;;;;16.44;55.61;100572.66;5005266;28;20030;-57
2022/04/23 09:14:49;;;;;;;14.45;12.55;;;;;;;16.42;55.16;100573.63;5006323;28;20053;-55
2022/04/23 09:25:39;;;;;;;16.05;12.98;;;;;;;17.29;54.83;100563.69;5008712;28;20048;-56
2022/04/23 09:28:26;;;;;;;17.70;13.23;;;;;;;17.19;54.09;100566.13;5008541;28;20018;-54
2022/04/23 09:30:54;;;;;;;18.40;12.30;;;;;;;17.60;52.99;100569.59;5008614;28;20025;-61
2022/04/23 09:33:28;;;;;;;15.73;12.93;;;;;;;17.78;52.79;100571.94;5009604;28;20030;-60
2022/04/23 09:36:03;;;;;;;14.25;11.57;;;;;;;18.01;52.33;100574.84;5008460;28;20460;-60
2022/04/23 09:38:29;;;;;;;16.45;12.13;;;;;;;17.87;52.13;100576.66;5007103;28;20438;-59
2022/04/23 09:41:15;;;;;;;21.23;13.00;;;;;;;17.65;51.63;100578.16;5008209;28;20472;-58
2022/04/23 09:43:42;;;;;;;23.33;12.07;;;;;;;17.48;52.36;100573.09;5005133;28;20060;-60
2022/04/23 09:46:08;;;;;;;13.90;12.38;;;;;;;17.12;53.23;100576.31;5009067;28;20099;-59
2022/04/23 09:48:35;;;;;;;14.38;12.88;;;;;;;17.30;52.76;100573.38;5004256;28;20842;-59
2022/04/23 09:51:01;;;;;;;15.18;12.60;;;;;;;17.66;52.30;100574.50;5002902;28;20030;-61
2022/04/23 09:53:29;;;;;;;17.17;12.68;;;;;;;17.67;52.66;100575.38;5008705;28;20026;-59
2022/04/23 09:55:59;;;;;;;16.02;12.95;;;;;;;17.54;52.76;100575.34;5008905;28;20025;-59
2022/04/23 09:58:27;;;;;;;15.20;12.73;;;;;;;17.76;52.05;100579.22;5009468;28;20041;-59
2022/04/23 10:00:52;;;;;;;16.83;11.40;;;;;;;18.04;51.61;100566.63;5007216;28;20504;-56
2022/04/23 10:03:18;;;;;;;14.75;12.45;;;;;;;18.22;51.38;100575.19;5000054;28;20285;-57
2022/04/23 10:05:47;;;;;;;14.57;13.07;;;;;;;18.35;50.92;100569.81;5005286;28;20124;-59
2022/04/23 10:08:17;;;;;;;15.25;12.30;;;;;;;18.41;51.14;100569.41;5006001;28;20497;-59
2022/04/23 10:11:09;;;;;;;17.67;12.88;;;;;;;18.56;50.07;100571.91;5007897;28;20072;-59
2022/04/23 10:13:35;;;;;;;15.18;12.70;;;;;;;18.55;49.33;100565.72;4993979;28;20038;-58
2022/04/23 10:16:03;;;;;;;15.75;11.73;;;;;;;18.57;49.93;100562.94;5006498;28;20026;-59
2022/04/23 10:18:29;;;;;;;14.57;12.77;;;;;;;18.72;50.06;100562.81;5007162;28;20088;-56
2022/04/23 10:21:07;;;;;;;20.15;12.30;;;;;;;18.72;49.45;100557.47;5007399;28;20464;-58
2022/04/23 10:24:10;;;;;;;15.07;12.68;;;;;;;18.55;50.38;100572.88;5001351;28;20060;-59
2022/04/23 10:26:46;;;;;;;17.42;12.60;;;;;;;18.31;50.23;100565.69;5001273;28;20034;-59
2022/04/23 10:29:16;;;;;;;14.32;12.65;;;;;;;18.26;50.28;100565.13;5016963;28;20535;-59
2022/04/23 10:31:42;;;;;;;16.55;13.07;;;;;;;18.30;50.79;100563.94;5000875;28;20025;-59
2022/04/23 10:34:29;;;;;;;15.23;12.27;;;;;;;18.52;50.64;100570.44;5005740;28;20030;-56
2022/04/23 10:37:14;;;;;;;15.00;12.77;;;;;;;18.45;50.60;100567.34;4972550;28;20543;-59
2022/04/23 10:39:42;;;;;;;16.70;12.15;;;;;;;18.71;50.56;100567.28;5000686;28;20399;-57
2022/04/23 10:42:12;;;;;;;16.95;13.75;;;;;;;19.31;49.71;100571.84;4999791;28;20127;-59
2022/04/23 10:44:38;;;;;;;16.50;13.40;;;;;;;19.24;48.99;100563.47;5008399;28;20022;-59
2022/04/23 10:47:11;;;;;;;14.85;13.23;;;;;;;19.66;48.39;100559.44;5006583;28;20045;-59
2022/04/23 10:49:37;;;;;;;15.77;13.65;;;;;;;20.00;47.63;100561.28;5006953;28;20030;-59
2022/04/23 10:52:02;;;;;;;19.98;13.10;;;;;;;19.90;46.98;100562.00;5007254;28;20491;-59
2022/04/23 10:54:40;;;;;;;15.73;13.93;;;;;;;19.63;47.88;100560.50;5005537;28;20560;-59
2022/04/23 10:57:15;;;;;;;15.35;12.15;;;;;;;20.03;46.92;100559.28;5008096;28;20026;-60
2022/04/23 10:59:45;;;;;;;16.52;13.38;;;;;;;19.61;47.65;100554.44;5007331;28;20585;-62
2022/04/23 11:02:29;;;;;;;14.60;12.57;;;;;;;19.55;48.36;100549.56;5007856;28;20144;-58
2022/04/23 11:13:29;;;;;;;15.00;12.77;;;;;;;20.29;47.14;100537.59;5005779;28;20516;-60
2022/04/23 11:16:18;;;;;;;17.85;12.60;;;;;;;20.13;46.68;100543.34;5005859;28;20440;-58
2022/04/23 11:18:45;;;;;;;17.85;12.63;;;;;;;20.16;47.49;100551.13;5007614;28;20457;-60
2022/04/23 11:21:13;;;;;;;15.38;13.02;;;;;;;19.96;46.63;100542.00;5006001;28;20083;-58
2022/04/23 11:23:42;;;;;;;13.65;12.15;;;;;;;20.15;46.36;100544.09;5006388;28;20100;-58
2022/04/23 11:26:11;;;;;;;;;;;;;;;20.03;46.28;100545.03;5007932;28;20030;-60
2022/04/23 11:28:36;;;;;;;15.23;13.55;;;;;;;19.83;47.28;100542.06;5006177;28;19913;-59
2022/04/23 11:31:13;;;;;;;16.17;13.30;;;;;;;20.01;48.03;100537.13;5006675;28;20037;-59
2022/04/23 11:33:50;;;;;;;15.98;12.90;;;;;;;20.50;46.41;100533.34;5007296;28;20052;-59